sensor_id;sensor_type;location;lat;lon;timestamp;P1;durP1;ratioP1;P2;durP2;ratioP2
5912;SDS011;2982;42.684;23.356;2023-03-14T00:01:16;7.27;;;4.80;;
5912;SDS011;2982;42.684;23.356;2023-03-14T00:03:43;7.63;;;4.90;;
5912;SDS011;2982;42.684;23.356;2023-03-14T00:06:09;7.37;;;4.83;;
5912;SDS011;2982;42.684;23.356;2023-03-14T00:08:35;9.07;;;5.33;;
5912;SDS011;2982;42.684;23.356;2023-03-14T00:11:08;5.63;;;4.53;;
5912;SDS011;2982;42.684;23.356;2023-03-14T00:13:35;7.37;;;3.90;;
5912;SDS011;2982;42.684;23.356;2023-03-14T00:16:05;4.37;;;3.90;;
5912;SDS011;2982;42.684;23.356;2023-03-14T00:18:32;4.83;;;4.03;;
5912;SDS011;2982;42.684;23.356;2023-03-14T00:20:58;5.07;;;3.97;;
5912;SDS011;2982;42.684;23.356;2023-03-14T00:23:24;4.03;;;3.33;;
5912;SDS011;2982;42.684;23.356;2023-03-14T00:25:49;3.03;;;2.83;;
5912;SDS011;2982;42.684;23.356;2023-03-14T00:28:14;3.70;;;3.07;;
5912;SDS011;2982;42.684;23.356;2023-03-14T00:30:40;4.03;;;3.53;;
5912;SDS011;2982;42.684;23.356;2023-03-14T00:33:05;4.87;;;3.27;;
5912;SDS011;2982;42.684;23.356;2023-03-14T00:35:30;3.30;;;2.97;;
5912;SDS011;2982;42.684;23.356;2023-03-14T00:37:55;5.00;;;3.10;;
5912;SDS011;2982;42.684;23.356;2023-03-14T00:40:21;3.30;;;3.03;;
5912;SDS011;2982;42.684;23.356;2023-03-14T00:42:46;3.53;;;3.23;;
5912;SDS011;2982;42.684;23.356;2023-03-14T00:45:11;4.57;;;3.50;;
5912;SDS011;2982;42.684;23.356;2023-03-14T00:47:37;12.23;;;4.20;;
5912;SDS011;2982;42.684;23.356;2023-03-14T00:50:02;5.97;;;3.73;;
5912;SDS011;2982;42.684;23.356;2023-03-14T00:52:27;6.23;;;4.80;;
5912;SDS011;2982;42.684;23.356;2023-03-14T00:54:53;6.67;;;4.23;;
5912;SDS011;2982;42.684;23.356;2023-03-14T00:57:18;4.80;;;4.37;;
5912;SDS011;2982;42.684;23.356;2023-03-14T00:59:43;5.13;;;3.67;;
5912;SDS011;2982;42.684;23.356;2023-03-14T01:02:08;5.90;;;5.27;;
5912;SDS011;2982;42.684;23.356;2023-03-14T01:04:34;5.13;;;3.93;;
5912;SDS011;2982;42.684;23.356;2023-03-14T01:06:59;6.40;;;3.57;;
5912;SDS011;2982;42.684;23.356;2023-03-14T01:09:24;3.37;;;2.90;;
5912;SDS011;2982;42.684;23.356;2023-03-14T01:11:50;3.87;;;3.53;;
5912;SDS011;2982;42.684;23.356;2023-03-14T01:14:15;5.57;;;3.40;;
5912;SDS011;2982;42.684;23.356;2023-03-14T01:16:40;3.83;;;3.30;;
5912;SDS011;2982;42.684;23.356;2023-03-14T01:19:05;6.87;;;3.53;;
5912;SDS011;2982;42.684;23.356;2023-03-14T01:21:32;3.70;;;3.30;;
5912;SDS011;2982;42.684;23.356;2023-03-14T01:23:59;3.87;;;3.37;;
5912;SDS011;2982;42.684;23.356;2023-03-14T01:26:27;3.80;;;3.40;;
5912;SDS011;2982;42.684;23.356;2023-03-14T01:28:54;5.87;;;4.03;;
5912;SDS011;2982;42.684;23.356;2023-03-14T01:31:20;5.33;;;4.10;;
5912;SDS011;2982;42.684;23.356;2023-03-14T01:33:46;5.13;;;4.63;;
5912;SDS011;2982;42.684;23.356;2023-03-14T01:36:12;7.23;;;4.83;;
5912;SDS011;2982;42.684;23.356;2023-03-14T01:38:38;5.90;;;4.17;;
5912;SDS011;2982;42.684;23.356;2023-03-14T01:41:04;8.93;;;4.93;;
5912;SDS011;2982;42.684;23.356;2023-03-14T01:43:30;7.30;;;4.53;;
5912;SDS011;2982;42.684;23.356;2023-03-14T01:51:11;4.97;;;4.57;;
5912;SDS011;2982;42.684;23.356;2023-03-14T01:53:41;4.43;;;3.83;;
5912;SDS011;2982;42.684;23.356;2023-03-14T01:56:08;5.67;;;4.43;;
5912;SDS011;2982;42.684;23.356;2023-03-14T01:58:36;4.90;;;3.80;;
5912;SDS011;2982;42.684;23.356;2023-03-14T02:01:04;3.70;;;3.40;;
5912;SDS011;2982;42.684;23.356;2023-03-14T02:03:30;4.90;;;4.40;;
5912;SDS011;2982;42.684;23.356;2023-03-14T02:05:59;4.13;;;3.73;;
5912;SDS011;2982;42.684;23.356;2023-03-14T02:08:29;6.40;;;4.20;;
5912;SDS011;2982;42.684;23.356;2023-03-14T02:10:55;5.70;;;4.20;;
5912;SDS011;2982;42.684;23.356;2023-03-14T02:13:21;6.07;;;5.33;;
5912;SDS011;2982;42.684;23.356;2023-03-14T02:15:47;6.20;;;4.97;;
5912;SDS011;2982;42.684;23.356;2023-03-14T02:18:14;5.70;;;4.70;;
5912;SDS011;2982;42.684;23.356;2023-03-14T02:23:51;6.63;;;4.07;;
5912;SDS011;2982;42.684;23.356;2023-03-14T02:26:28;4.83;;;4.07;;
5912;SDS011;2982;42.684;23.356;2023-03-14T02:29:00;5.40;;;4.17;;
5912;SDS011;2982;42.684;23.356;2023-03-14T02:31:25;5.47;;;4.13;;
5912;SDS011;2982;42.684;23.356;2023-03-14T02:33:50;5.60;;;4.77;;
5912;SDS011;2982;42.684;23.356;2023-03-14T02:36:17;6.17;;;4.83;;
5912;SDS011;2982;42.684;23.356;2023-03-14T02:41:25;6.23;;;4.80;;
5912;SDS011;2982;42.684;23.356;2023-03-14T02:43:50;5.00;;;4.50;;
5912;SDS011;2982;42.684;23.356;2023-03-14T02:46:16;5.03;;;4.60;;
5912;SDS011;2982;42.684;23.356;2023-03-14T02:51:29;6.67;;;4.93;;
5912;SDS011;2982;42.684;23.356;2023-03-14T02:53:54;4.97;;;4.47;;
5912;SDS011;2982;42.684;23.356;2023-03-14T02:56:20;9.23;;;5.33;;
5912;SDS011;2982;42.684;23.356;2023-03-14T02:58:45;7.70;;;5.30;;
5912;SDS011;2982;42.684;23.356;2023-03-14T03:01:10;8.47;;;5.57;;
5912;SDS011;2982;42.684;23.356;2023-03-14T03:03:35;6.17;;;5.47;;
5912;SDS011;2982;42.684;23.356;2023-03-14T03:06:01;8.73;;;4.87;;
5912;SDS011;2982;42.684;23.356;2023-03-14T03:08:27;6.27;;;5.33;;
5912;SDS011;2982;42.684;23.356;2023-03-14T03:10:54;9.70;;;5.60;;
5912;SDS011;2982;42.684;23.356;2023-03-14T03:13:21;6.73;;;5.57;;
5912;SDS011;2982;42.684;23.356;2023-03-14T03:15:46;12.37;;;6.67;;
5912;SDS011;2982;42.684;23.356;2023-03-14T03:18:11;10.27;;;7.17;;
5912;SDS011;2982;42.684;23.356;2023-03-14T03:20:37;8.23;;;7.10;;
5912;SDS011;2982;42.684;23.356;2023-03-14T03:23:02;8.23;;;6.07;;
5912;SDS011;2982;42.684;23.356;2023-03-14T03:25:28;11.30;;;6.90;;
5912;SDS011;2982;42.684;23.356;2023-03-14T03:27:53;14.47;;;7.30;;
5912;SDS011;2982;42.684;23.356;2023-03-14T03:30:19;11.13;;;7.27;;
5912;SDS011;2982;42.684;23.356;2023-03-14T03:32:44;11.67;;;7.37;;
5912;SDS011;2982;42.684;23.356;2023-03-14T03:35:10;10.53;;;7.53;;
5912;SDS011;2982;42.684;23.356;2023-03-14T03:37:35;8.93;;;7.23;;
5912;SDS011;2982;42.684;23.356;2023-03-14T03:40:00;13.23;;;8.17;;
5912;SDS011;2982;42.684;23.356;2023-03-14T03:42:26;10.60;;;7.17;;
5912;SDS011;2982;42.684;23.356;2023-03-14T03:44:52;11.67;;;7.27;;
5912;SDS011;2982;42.684;23.356;2023-03-14T03:47:18;9.23;;;7.30;;
5912;SDS011;2982;42.684;23.356;2023-03-14T03:49:43;10.53;;;7.10;;
5912;SDS011;2982;42.684;23.356;2023-03-14T03:52:08;11.53;;;7.43;;
5912;SDS011;2982;42.684;23.356;2023-03-14T03:54:33;11.33;;;6.37;;
5912;SDS011;2982;42.684;23.356;2023-03-14T03:56:59;10.43;;;7.07;;
5912;SDS011;2982;42.684;23.356;2023-03-14T03:59:24;9.07;;;6.47;;
5912;SDS011;2982;42.684;23.356;2023-03-14T04:01:49;9.17;;;6.07;;
5912;SDS011;2982;42.684;23.356;2023-03-14T04:04:15;15.27;;;7.27;;
5912;SDS011;2982;42.684;23.356;2023-03-14T04:06:40;11.73;;;6.93;;
5912;SDS011;2982;42.684;23.356;2023-03-14T04:09:05;8.10;;;6.37;;
5912;SDS011;2982;42.684;23.356;2023-03-14T04:11:31;11.27;;;6.83;;
5912;SDS011;2982;42.684;23.356;2023-03-14T04:13:56;8.77;;;6.93;;
5912;SDS011;2982;42.684;23.356;2023-03-14T04:16:22;9.13;;;6.50;;
5912;SDS011;2982;42.684;23.356;2023-03-14T04:18:49;7.40;;;6.40;;
5912;SDS011;2982;42.684;23.356;2023-03-14T04:21:15;9.53;;;6.87;;
5912;SDS011;2982;42.684;23.356;2023-03-14T04:23:40;9.70;;;7.03;;
5912;SDS011;2982;42.684;23.356;2023-03-14T04:26:06;10.67;;;6.80;;
5912;SDS011;2982;42.684;23.356;2023-03-14T04:28:31;11.20;;;7.23;;
5912;SDS011;2982;42.684;23.356;2023-03-14T04:30:56;11.40;;;7.37;;
5912;SDS011;2982;42.684;23.356;2023-03-14T04:33:22;9.33;;;6.33;;
5912;SDS011;2982;42.684;23.356;2023-03-14T04:35:47;15.70;;;7.73;;
5912;SDS011;2982;42.684;23.356;2023-03-14T04:38:13;12.07;;;7.07;;
5912;SDS011;2982;42.684;23.356;2023-03-14T04:40:39;12.33;;;7.13;;
5912;SDS011;2982;42.684;23.356;2023-03-14T04:43:06;10.10;;;6.93;;
5912;SDS011;2982;42.684;23.356;2023-03-14T04:45:32;10.57;;;6.97;;
5912;SDS011;2982;42.684;23.356;2023-03-14T04:47:57;11.27;;;6.97;;
5912;SDS011;2982;42.684;23.356;2023-03-14T04:50:22;10.60;;;6.47;;
5912;SDS011;2982;42.684;23.356;2023-03-14T04:52:48;7.63;;;6.67;;
5912;SDS011;2982;42.684;23.356;2023-03-14T04:55:13;9.77;;;6.20;;
5912;SDS011;2982;42.684;23.356;2023-03-14T04:57:39;13.73;;;7.17;;
5912;SDS011;2982;42.684;23.356;2023-03-14T05:00:04;13.20;;;7.83;;
5912;SDS011;2982;42.684;23.356;2023-03-14T05:02:30;17.27;;;8.23;;
5912;SDS011;2982;42.684;23.356;2023-03-14T05:04:55;10.73;;;8.23;;
5912;SDS011;2982;42.684;23.356;2023-03-14T05:07:20;15.87;;;8.53;;
5912;SDS011;2982;42.684;23.356;2023-03-14T05:09:46;18.60;;;9.40;;
5912;SDS011;2982;42.684;23.356;2023-03-14T05:12:11;19.70;;;9.83;;
5912;SDS011;2982;42.684;23.356;2023-03-14T05:14:36;17.97;;;9.87;;
5912;SDS011;2982;42.684;23.356;2023-03-14T05:17:02;27.47;;;9.87;;
5912;SDS011;2982;42.684;23.356;2023-03-14T05:19:27;18.63;;;9.33;;
5912;SDS011;2982;42.684;23.356;2023-03-14T05:21:52;13.90;;;10.47;;
5912;SDS011;2982;42.684;23.356;2023-03-14T05:24:18;18.77;;;11.20;;
5912;SDS011;2982;42.684;23.356;2023-03-14T05:26:43;21.73;;;10.60;;
5912;SDS011;2982;42.684;23.356;2023-03-14T05:29:08;15.00;;;11.53;;
5912;SDS011;2982;42.684;23.356;2023-03-14T05:31:34;26.23;;;12.07;;
5912;SDS011;2982;42.684;23.356;2023-03-14T05:33:59;15.63;;;11.03;;
5912;SDS011;2982;42.684;23.356;2023-03-14T05:36:24;23.83;;;11.80;;
5912;SDS011;2982;42.684;23.356;2023-03-14T05:38:50;17.83;;;11.93;;
5912;SDS011;2982;42.684;23.356;2023-03-14T05:41:15;20.23;;;11.37;;
5912;SDS011;2982;42.684;23.356;2023-03-14T05:43:41;17.67;;;10.53;;
5912;SDS011;2982;42.684;23.356;2023-03-14T05:46:06;17.50;;;11.87;;
5912;SDS011;2982;42.684;23.356;2023-03-14T05:48:32;23.27;;;10.67;;
5912;SDS011;2982;42.684;23.356;2023-03-14T05:50:57;19.13;;;10.60;;
5912;SDS011;2982;42.684;23.356;2023-03-14T05:53:23;19.53;;;11.27;;
5912;SDS011;2982;42.684;23.356;2023-03-14T05:55:50;19.52;;;12.10;;
5912;SDS011;2982;42.684;23.356;2023-03-14T05:58:20;20.55;;;13.48;;
5912;SDS011;2982;42.684;23.356;2023-03-14T06:00:45;32.35;;;14.98;;
5912;SDS011;2982;42.684;23.356;2023-03-14T06:03:10;28.95;;;15.63;;
5912;SDS011;2982;42.684;23.356;2023-03-14T06:05:36;23.25;;;15.57;;
5912;SDS011;2982;42.684;23.356;2023-03-14T06:08:01;26.10;;;17.08;;
5912;SDS011;2982;42.684;23.356;2023-03-14T06:10:26;29.95;;;16.95;;
5912;SDS011;2982;42.684;23.356;2023-03-14T06:12:52;22.27;;;13.18;;
5912;SDS011;2982;42.684;23.356;2023-03-14T06:15:17;23.63;;;13.27;;
5912;SDS011;2982;42.684;23.356;2023-03-14T06:17:42;28.53;;;16.50;;
5912;SDS011;2982;42.684;23.356;2023-03-14T06:20:08;20.97;;;14.73;;
5912;SDS011;2982;42.684;23.356;2023-03-14T06:22:34;24.90;;;15.80;;
5912;SDS011;2982;42.684;23.356;2023-03-14T06:24:59;24.33;;;14.03;;
5912;SDS011;2982;42.684;23.356;2023-03-14T06:27:25;29.13;;;15.40;;
5912;SDS011;2982;42.684;23.356;2023-03-14T06:29:50;24.90;;;15.60;;
5912;SDS011;2982;42.684;23.356;2023-03-14T06:32:15;36.23;;;18.70;;
5912;SDS011;2982;42.684;23.356;2023-03-14T06:34:41;26.50;;;16.73;;
5912;SDS011;2982;42.684;23.356;2023-03-14T06:37:06;36.07;;;17.23;;
5912;SDS011;2982;42.684;23.356;2023-03-14T06:39:31;28.97;;;16.13;;
5912;SDS011;2982;42.684;23.356;2023-03-14T06:41:57;32.80;;;13.80;;
5912;SDS011;2982;42.684;23.356;2023-03-14T06:44:22;31.93;;;15.33;;
5912;SDS011;2982;42.684;23.356;2023-03-14T06:46:47;27.27;;;15.47;;
5912;SDS011;2982;42.684;23.356;2023-03-14T06:49:13;25.83;;;14.13;;
5912;SDS011;2982;42.684;23.356;2023-03-14T06:51:38;20.97;;;12.27;;
5912;SDS011;2982;42.684;23.356;2023-03-14T06:54:03;15.10;;;10.60;;
5912;SDS011;2982;42.684;23.356;2023-03-14T06:56:28;17.40;;;11.60;;
5912;SDS011;2982;42.684;23.356;2023-03-14T06:58:54;11.97;;;9.30;;
5912;SDS011;2982;42.684;23.356;2023-03-14T07:01:20;17.60;;;9.73;;
5912;SDS011;2982;42.684;23.356;2023-03-14T07:03:50;17.43;;;10.03;;
5912;SDS011;2982;42.684;23.356;2023-03-14T07:06:15;17.57;;;10.63;;
5912;SDS011;2982;42.684;23.356;2023-03-14T07:08:41;17.07;;;9.83;;
5912;SDS011;2982;42.684;23.356;2023-03-14T07:11:07;11.00;;;8.53;;
5912;SDS011;2982;42.684;23.356;2023-03-14T07:13:33;12.17;;;8.57;;
5912;SDS011;2982;42.684;23.356;2023-03-14T07:15:58;10.57;;;8.43;;
5912;SDS011;2982;42.684;23.356;2023-03-14T07:18:23;11.77;;;9.47;;
5912;SDS011;2982;42.684;23.356;2023-03-14T07:20:48;12.33;;;10.60;;
5912;SDS011;2982;42.684;23.356;2023-03-14T07:23:14;7.77;;;6.57;;
5912;SDS011;2982;42.684;23.356;2023-03-14T07:25:39;9.93;;;7.60;;
5912;SDS011;2982;42.684;23.356;2023-03-14T07:28:04;15.87;;;8.47;;
5912;SDS011;2982;42.684;23.356;2023-03-14T07:30:30;19.67;;;9.50;;
5912;SDS011;2982;42.684;23.356;2023-03-14T07:32:55;11.67;;;8.97;;
5912;SDS011;2982;42.684;23.356;2023-03-14T07:35:20;16.20;;;8.50;;
5912;SDS011;2982;42.684;23.356;2023-03-14T07:37:47;11.70;;;8.50;;
5912;SDS011;2982;42.684;23.356;2023-03-14T07:40:12;10.47;;;8.07;;
5912;SDS011;2982;42.684;23.356;2023-03-14T07:42:37;12.73;;;8.50;;
5912;SDS011;2982;42.684;23.356;2023-03-14T07:45:03;14.13;;;8.83;;
5912;SDS011;2982;42.684;23.356;2023-03-14T07:47:28;9.20;;;8.33;;
5912;SDS011;2982;42.684;23.356;2023-03-14T07:49:54;15.87;;;9.40;;
5912;SDS011;2982;42.684;23.356;2023-03-14T07:52:19;15.63;;;9.30;;
5912;SDS011;2982;42.684;23.356;2023-03-14T07:54:44;10.27;;;8.77;;
5912;SDS011;2982;42.684;23.356;2023-03-14T07:57:10;14.50;;;8.10;;
5912;SDS011;2982;42.684;23.356;2023-03-14T07:59:35;13.40;;;8.97;;
5912;SDS011;2982;42.684;23.356;2023-03-14T08:02:00;17.93;;;10.43;;
5912;SDS011;2982;42.684;23.356;2023-03-14T08:04:25;14.73;;;8.80;;
5912;SDS011;2982;42.684;23.356;2023-03-14T08:06:51;22.90;;;8.50;;
5912;SDS011;2982;42.684;23.356;2023-03-14T08:09:16;10.83;;;8.77;;
5912;SDS011;2982;42.684;23.356;2023-03-14T08:11:41;8.57;;;7.77;;
5912;SDS011;2982;42.684;23.356;2023-03-14T08:14:06;12.43;;;8.57;;
5912;SDS011;2982;42.684;23.356;2023-03-14T08:16:32;12.13;;;7.73;;
5912;SDS011;2982;42.684;23.356;2023-03-14T08:18:57;9.33;;;7.73;;
5912;SDS011;2982;42.684;23.356;2023-03-14T08:21:22;11.47;;;8.30;;
5912;SDS011;2982;42.684;23.356;2023-03-14T08:23:48;10.60;;;7.82;;
5912;SDS011;2982;42.684;23.356;2023-03-14T08:26:13;8.63;;;7.77;;
5912;SDS011;2982;42.684;23.356;2023-03-14T08:28:38;9.73;;;8.03;;
5912;SDS011;2982;42.684;23.356;2023-03-14T08:31:04;8.97;;;7.10;;
5912;SDS011;2982;42.684;23.356;2023-03-14T08:33:29;8.13;;;7.43;;
5912;SDS011;2982;42.684;23.356;2023-03-14T08:35:55;9.77;;;7.50;;
5912;SDS011;2982;42.684;23.356;2023-03-14T08:38:27;18.93;;;7.53;;
5912;SDS011;2982;42.684;23.356;2023-03-14T08:40:59;7.55;;;6.43;;
5912;SDS011;2982;42.684;23.356;2023-03-14T08:43:26;10.70;;;6.90;;
5912;SDS011;2982;42.684;23.356;2023-03-14T08:45:52;8.25;;;6.72;;
5912;SDS011;2982;42.684;23.356;2023-03-14T08:48:17;10.87;;;6.27;;
5912;SDS011;2982;42.684;23.356;2023-03-14T08:50:43;7.03;;;6.33;;
5912;SDS011;2982;42.684;23.356;2023-03-14T08:53:08;9.73;;;7.83;;
5912;SDS011;2982;42.684;23.356;2023-03-14T08:55:33;10.57;;;7.05;;
5912;SDS011;2982;42.684;23.356;2023-03-14T08:57:59;17.52;;;9.30;;
5912;SDS011;2982;42.684;23.356;2023-03-14T09:00:24;13.07;;;7.95;;
5912;SDS011;2982;42.684;23.356;2023-03-14T09:02:49;8.77;;;6.78;;
5912;SDS011;2982;42.684;23.356;2023-03-14T09:05:15;8.45;;;6.35;;
5912;SDS011;2982;42.684;23.356;2023-03-14T09:07:40;7.47;;;5.50;;
5912;SDS011;2982;42.684;23.356;2023-03-14T09:10:07;5.50;;;5.10;;
5912;SDS011;2982;42.684;23.356;2023-03-14T09:12:33;7.25;;;4.95;;
5912;SDS011;2982;42.684;23.356;2023-03-14T09:14:58;8.05;;;5.53;;
5912;SDS011;2982;42.684;23.356;2023-03-14T09:17:23;5.45;;;5.03;;
5912;SDS011;2982;42.684;23.356;2023-03-14T09:19:49;4.70;;;4.30;;
5912;SDS011;2982;42.684;23.356;2023-03-14T09:22:14;6.60;;;4.72;;
5912;SDS011;2982;42.684;23.356;2023-03-14T09:24:40;5.78;;;5.28;;
5912;SDS011;2982;42.684;23.356;2023-03-14T09:27:05;9.32;;;5.78;;
5912;SDS011;2982;42.684;23.356;2023-03-14T09:29:31;10.93;;;5.13;;
5912;SDS011;2982;42.684;23.356;2023-03-14T09:31:57;8.05;;;5.75;;
5912;SDS011;2982;42.684;23.356;2023-03-14T09:34:23;5.90;;;4.57;;
5912;SDS011;2982;42.684;23.356;2023-03-14T09:36:48;10.48;;;4.55;;
5912;SDS011;2982;42.684;23.356;2023-03-14T09:39:13;7.13;;;4.60;;
5912;SDS011;2982;42.684;23.356;2023-03-14T09:41:39;6.28;;;5.68;;
5912;SDS011;2982;42.684;23.356;2023-03-14T09:47:00;6.97;;;5.80;;
5912;SDS011;2982;42.684;23.356;2023-03-14T09:52:00;10.30;;;3.65;;
5912;SDS011;2982;42.684;23.356;2023-03-14T09:54:31;7.22;;;5.28;;
5912;SDS011;2982;42.684;23.356;2023-03-14T09:56:57;7.47;;;5.43;;
5912;SDS011;2982;42.684;23.356;2023-03-14T09:59:23;6.90;;;4.95;;
5912;SDS011;2982;42.684;23.356;2023-03-14T10:01:48;5.68;;;5.20;;
5912;SDS011;2982;42.684;23.356;2023-03-14T10:04:15;9.38;;;5.28;;
5912;SDS011;2982;42.684;23.356;2023-03-14T10:06:42;7.72;;;5.78;;
5912;SDS011;2982;42.684;23.356;2023-03-14T10:09:10;10.20;;;6.25;;
5912;SDS011;2982;42.684;23.356;2023-03-14T10:11:44;18.10;;;6.18;;
5912;SDS011;2982;42.684;23.356;2023-03-14T10:14:10;11.25;;;6.18;;
5912;SDS011;2982;42.684;23.356;2023-03-14T10:16:37;12.60;;;6.00;;
5912;SDS011;2982;42.684;23.356;2023-03-14T10:19:09;6.15;;;5.57;;
5912;SDS011;2982;42.684;23.356;2023-03-14T10:21:40;7.18;;;5.30;;
5912;SDS011;2982;42.684;23.356;2023-03-14T10:24:21;4.97;;;4.50;;
5912;SDS011;2982;42.684;23.356;2023-03-14T10:26:51;8.05;;;4.75;;
5912;SDS011;2982;42.684;23.356;2023-03-14T10:29:18;5.55;;;4.53;;
5912;SDS011;2982;42.684;23.356;2023-03-14T10:34:15;6.35;;;5.45;;
5912;SDS011;2982;42.684;23.356;2023-03-14T10:36:42;5.28;;;4.35;;
5912;SDS011;2982;42.684;23.356;2023-03-14T10:41:54;4.28;;;3.97;;
5912;SDS011;2982;42.684;23.356;2023-03-14T10:44:28;4.10;;;3.80;;
5912;SDS011;2982;42.684;23.356;2023-03-14T10:47:04;3.72;;;3.30;;
5912;SDS011;2982;42.684;23.356;2023-03-14T10:49:33;5.75;;;3.65;;
5912;SDS011;2982;42.684;23.356;2023-03-14T10:52:13;4.75;;;3.13;;
5912;SDS011;2982;42.684;23.356;2023-03-14T10:54:46;4.25;;;3.60;;
5912;SDS011;2982;42.684;23.356;2023-03-14T10:57:12;3.92;;;3.55;;
5912;SDS011;2982;42.684;23.356;2023-03-14T10:59:38;5.05;;;3.25;;
5912;SDS011;2982;42.684;23.356;2023-03-14T11:05:40;5.00;;;2.67;;
5912;SDS011;2982;42.684;23.356;2023-03-14T11:07:51;4.63;;;2.45;;
5912;SDS011;2982;42.684;23.356;2023-03-14T11:13:15;3.03;;;2.67;;
5912;SDS011;2982;42.684;23.356;2023-03-14T11:18:57;4.32;;;2.60;;
5912;SDS011;2982;42.684;23.356;2023-03-14T11:27:05;2.58;;;2.38;;
5912;SDS011;2982;42.684;23.356;2023-03-14T11:29:39;3.78;;;3.25;;
5912;SDS011;2982;42.684;23.356;2023-03-14T11:32:19;3.17;;;2.50;;
5912;SDS011;2982;42.684;23.356;2023-03-14T11:37:24;5.10;;;2.95;;
5912;SDS011;2982;42.684;23.356;2023-03-14T11:40:04;3.80;;;3.40;;
5912;SDS011;2982;42.684;23.356;2023-03-14T11:42:37;2.67;;;2.45;;
5912;SDS011;2982;42.684;23.356;2023-03-14T11:45:12;2.65;;;2.08;;
5912;SDS011;2982;42.684;23.356;2023-03-14T11:47:43;5.65;;;2.45;;
5912;SDS011;2982;42.684;23.356;2023-03-14T11:50:20;2.97;;;2.67;;
5912;SDS011;2982;42.684;23.356;2023-03-14T11:52:50;3.33;;;2.50;;
5912;SDS011;2982;42.684;23.356;2023-03-14T11:55:26;12.68;;;2.50;;
5912;SDS011;2982;42.684;23.356;2023-03-14T11:58:25;5.57;;;2.05;;
5912;SDS011;2982;42.684;23.356;2023-03-14T12:00:55;2.03;;;1.75;;
5912;SDS011;2982;42.684;23.356;2023-03-14T12:03:34;2.30;;;2.10;;
5912;SDS011;2982;42.684;23.356;2023-03-14T12:09:11;2.08;;;1.98;;
5912;SDS011;2982;42.684;23.356;2023-03-14T12:11:48;3.30;;;1.80;;
5912;SDS011;2982;42.684;23.356;2023-03-14T12:14:33;2.65;;;2.03;;
5912;SDS011;2982;42.684;23.356;2023-03-14T12:17:06;1.75;;;1.20;;
5912;SDS011;2982;42.684;23.356;2023-03-14T12:19:43;2.10;;;1.90;;
5912;SDS011;2982;42.684;23.356;2023-03-14T12:25:00;1.52;;;1.42;;
5912;SDS011;2982;42.684;23.356;2023-03-14T12:27:46;1.52;;;1.35;;
5912;SDS011;2982;42.684;23.356;2023-03-14T12:30:25;1.63;;;1.48;;
5912;SDS011;2982;42.684;23.356;2023-03-14T12:43:50;1.75;;;1.65;;
5912;SDS011;2982;42.684;23.356;2023-03-14T12:46:23;3.50;;;1.98;;
5912;SDS011;2982;42.684;23.356;2023-03-14T12:48:53;2.13;;;1.50;;
5912;SDS011;2982;42.684;23.356;2023-03-14T12:51:28;2.63;;;1.52;;
5912;SDS011;2982;42.684;23.356;2023-03-14T12:56:28;2.88;;;1.48;;
5912;SDS011;2982;42.684;23.356;2023-03-14T13:01:59;1.65;;;1.10;;
5912;SDS011;2982;42.684;23.356;2023-03-14T13:04:28;2.42;;;1.75;;
5912;SDS011;2982;42.684;23.356;2023-03-14T13:06:59;3.70;;;1.42;;
5912;SDS011;2982;42.684;23.356;2023-03-14T13:11:54;2.60;;;1.60;;
5912;SDS011;2982;42.684;23.356;2023-03-14T13:14:20;1.67;;;1.42;;
5912;SDS011;2982;42.684;23.356;2023-03-14T13:16:47;0.95;;;0.95;;
5912;SDS011;2982;42.684;23.356;2023-03-14T13:19:20;2.45;;;1.20;;
5912;SDS011;2982;42.684;23.356;2023-03-14T13:21:50;1.75;;;1.17;;
5912;SDS011;2982;42.684;23.356;2023-03-14T13:24:24;4.95;;;1.33;;
5912;SDS011;2982;42.684;23.356;2023-03-14T13:26:54;4.47;;;1.20;;
5912;SDS011;2982;42.684;23.356;2023-03-14T13:29:24;1.98;;;1.40;;
5912;SDS011;2982;42.684;23.356;2023-03-14T13:31:52;1.52;;;1.42;;
5912;SDS011;2982;42.684;23.356;2023-03-14T13:34:19;1.40;;;1.20;;
5912;SDS011;2982;42.684;23.356;2023-03-14T13:36:45;1.27;;;1.17;;
5912;SDS011;2982;42.684;23.356;2023-03-14T13:39:17;2.22;;;1.17;;
5912;SDS011;2982;42.684;23.356;2023-03-14T13:41:45;4.15;;;1.50;;
5912;SDS011;2982;42.684;23.356;2023-03-14T13:44:18;4.82;;;1.48;;
5912;SDS011;2982;42.684;23.356;2023-03-14T13:47:01;5.18;;;1.33;;
5912;SDS011;2982;42.684;23.356;2023-03-14T13:49:29;3.78;;;1.48;;
5912;SDS011;2982;42.684;23.356;2023-03-14T13:51:57;1.60;;;1.00;;
5912;SDS011;2982;42.684;23.356;2023-03-14T13:54:23;1.65;;;1.33;;
5912;SDS011;2982;42.684;23.356;2023-03-14T13:57:01;1.67;;;1.10;;
5912;SDS011;2982;42.684;23.356;2023-03-14T13:59:28;1.65;;;1.55;;
5912;SDS011;2982;42.684;23.356;2023-03-14T14:01:55;2.75;;;1.30;;
5912;SDS011;2982;42.684;23.356;2023-03-14T14:04:23;4.47;;;1.30;;
5912;SDS011;2982;42.684;23.356;2023-03-14T14:06:59;5.63;;;1.70;;
5912;SDS011;2982;42.684;23.356;2023-03-14T14:09:29;3.03;;;1.38;;
5912;SDS011;2982;42.684;23.356;2023-03-14T14:20:20;1.60;;;1.45;;
5912;SDS011;2982;42.684;23.356;2023-03-14T14:22:58;1.27;;;1.17;;
5912;SDS011;2982;42.684;23.356;2023-03-14T14:25:24;4.38;;;1.23;;
5912;SDS011;2982;42.684;23.356;2023-03-14T14:27:50;2.83;;;1.13;;
5912;SDS011;2982;42.684;23.356;2023-03-14T14:32:44;3.20;;;1.10;;
5912;SDS011;2982;42.684;23.356;2023-03-14T14:35:24;4.30;;;1.00;;
5912;SDS011;2982;42.684;23.356;2023-03-14T14:37:51;1.65;;;1.35;;
5912;SDS011;2982;42.684;23.356;2023-03-14T14:40:27;3.45;;;1.63;;
5912;SDS011;2982;42.684;23.356;2023-03-14T14:42:53;1.35;;;1.25;;
5912;SDS011;2982;42.684;23.356;2023-03-14T14:45:26;1.10;;;1.00;;
5912;SDS011;2982;42.684;23.356;2023-03-14T14:47:53;1.20;;;1.00;;
5912;SDS011;2982;42.684;23.356;2023-03-14T14:50:34;2.78;;;1.15;;
5912;SDS011;2982;42.684;23.356;2023-03-14T14:53:18;1.17;;;1.10;;
5912;SDS011;2982;42.684;23.356;2023-03-14T14:55:44;2.90;;;1.73;;
5912;SDS011;2982;42.684;23.356;2023-03-14T14:58:22;2.15;;;1.17;;
5912;SDS011;2982;42.684;23.356;2023-03-14T15:00:57;2.90;;;1.30;;
5912;SDS011;2982;42.684;23.356;2023-03-14T15:03:29;2.67;;;1.20;;
5912;SDS011;2982;42.684;23.356;2023-03-14T15:05:56;1.63;;;1.33;;
5912;SDS011;2982;42.684;23.356;2023-03-14T15:08:22;1.25;;;1.13;;
5912;SDS011;2982;42.684;23.356;2023-03-14T15:10:49;1.83;;;1.40;;
5912;SDS011;2982;42.684;23.356;2023-03-14T15:13:14;1.30;;;1.20;;
5912;SDS011;2982;42.684;23.356;2023-03-14T15:15:40;1.40;;;1.25;;
5912;SDS011;2982;42.684;23.356;2023-03-14T15:18:13;1.58;;;1.38;;
5912;SDS011;2982;42.684;23.356;2023-03-14T15:20:42;1.30;;;1.20;;
5912;SDS011;2982;42.684;23.356;2023-03-14T15:23:12;1.20;;;1.10;;
5912;SDS011;2982;42.684;23.356;2023-03-14T15:25:38;2.67;;;1.10;;
5912;SDS011;2982;42.684;23.356;2023-03-14T15:28:09;2.10;;;1.20;;
5912;SDS011;2982;42.684;23.356;2023-03-14T15:30:39;2.25;;;1.02;;
5912;SDS011;2982;42.684;23.356;2023-03-14T15:33:04;1.75;;;1.30;;
5912;SDS011;2982;42.684;23.356;2023-03-14T15:35:30;2.00;;;1.10;;
5912;SDS011;2982;42.684;23.356;2023-03-14T15:37:55;1.27;;;1.17;;
5912;SDS011;2982;42.684;23.356;2023-03-14T15:40:20;2.67;;;1.00;;
5912;SDS011;2982;42.684;23.356;2023-03-14T15:42:49;1.55;;;1.45;;
5912;SDS011;2982;42.684;23.356;2023-03-14T15:45:14;1.67;;;1.55;;
5912;SDS011;2982;42.684;23.356;2023-03-14T15:47:39;1.52;;;1.30;;
5912;SDS011;2982;42.684;23.356;2023-03-14T15:50:05;2.30;;;2.15;;
5912;SDS011;2982;42.684;23.356;2023-03-14T15:52:31;1.92;;;1.30;;
5912;SDS011;2982;42.684;23.356;2023-03-14T15:54:56;1.35;;;1.25;;
5912;SDS011;2982;42.684;23.356;2023-03-14T15:57:21;1.73;;;1.40;;
5912;SDS011;2982;42.684;23.356;2023-03-14T15:59:47;2.38;;;1.88;;
5912;SDS011;2982;42.684;23.356;2023-03-14T16:02:12;1.80;;;1.70;;
5912;SDS011;2982;42.684;23.356;2023-03-14T16:04:37;4.68;;;1.95;;
5912;SDS011;2982;42.684;23.356;2023-03-14T16:07:03;2.50;;;1.83;;
5912;SDS011;2982;42.684;23.356;2023-03-14T16:09:28;2.15;;;1.88;;
5912;SDS011;2982;42.684;23.356;2023-03-14T16:11:53;5.45;;;2.30;;
5912;SDS011;2982;42.684;23.356;2023-03-14T16:14:19;1.80;;;1.63;;